createdAt,value
2019-02-21T00:01:24.273Z,98.42
2019-02-21T00:03:53.420Z,98.35
2019-02-21T00:06:22.521Z,98.39
2019-02-21T00:08:51.689Z,98.31
2019-02-21T00:11:20.791Z,98.43
2019-02-21T00:13:49.941Z,98.56
2019-02-21T00:16:19.086Z,98.00
2019-02-21T00:18:48.235Z,98.00
2019-02-21T00:21:17.436Z,98.29
2019-02-21T00:23:46.545Z,98.36
2019-02-21T00:26:15.859Z,98.54
2019-02-21T00:28:45.027Z,98.49
2019-02-21T00:31:14.203Z,98.70
2019-02-21T00:33:43.701Z,98.78
2019-02-21T00:36:12.859Z,98.64
2019-02-21T00:38:41.953Z,98.35
2019-02-21T00:41:11.130Z,98.20
2019-02-21T00:43:41.097Z,98.04
2019-02-21T00:46:10.188Z,97.89
2019-02-21T00:48:39.285Z,97.39
2019-02-21T00:51:08.449Z,97.66
2019-02-21T00:53:37.616Z,98.26
2019-02-21T00:56:06.786Z,98.38
2019-02-21T00:58:35.940Z,98.56
2019-02-21T01:01:05.543Z,98.83
2019-02-21T01:03:34.697Z,98.85
2019-02-21T01:06:03.810Z,98.65
2019-02-21T01:08:32.946Z,98.53
2019-02-21T01:11:02.104Z,98.98
2019-02-21T01:13:31.237Z,98.65
2019-02-21T01:16:00.380Z,98.38
2019-02-21T01:18:29.531Z,98.54
2019-02-21T01:20:58.685Z,98.51
2019-02-21T01:23:28.061Z,98.80
2019-02-21T01:25:57.223Z,98.76
2019-02-21T01:28:26.357Z,98.60
2019-02-21T01:30:57.193Z,98.66
2019-02-21T01:33:26.355Z,98.86
2019-02-21T01:35:55.512Z,98.35
2019-02-21T01:38:24.613Z,98.76
2019-02-21T01:40:54.145Z,98.97
2019-02-21T01:43:23.353Z,99.01
2019-02-21T01:45:52.499Z,99.19
2019-02-21T01:48:22.001Z,99.38
2019-02-21T01:50:51.175Z,99.19
2019-02-21T01:53:20.321Z,98.76
2019-02-21T01:55:49.423Z,98.98
2019-02-21T01:58:18.739Z,99.11
2019-02-21T02:00:47.875Z,99.44
2019-02-21T02:03:17.013Z,99.72
2019-02-21T02:05:46.122Z,99.45
2019-02-21T02:08:15.281Z,98.91
2019-02-21T02:10:44.715Z,98.96
2019-02-21T02:13:24.218Z,98.70
2019-02-21T02:15:44.711Z,98.93
2019-02-21T02:18:14.177Z,99.19
2019-02-21T02:20:43.300Z,99.08
2019-02-21T02:23:12.418Z,99.27
2019-02-21T02:25:41.912Z,98.74
2019-02-21T02:28:11.016Z,99.16
2019-02-21T02:30:40.180Z,98.92
2019-02-21T02:33:09.368Z,99.12
2019-02-21T02:35:38.536Z,99.22
2019-02-21T02:38:07.631Z,99.06
2019-02-21T02:40:36.781Z,99.37
2019-02-21T02:43:05.895Z,99.35
2019-02-21T02:45:35.031Z,99.14
2019-02-21T02:48:04.174Z,99.10
2019-02-21T02:50:33.675Z,99.40
2019-02-21T02:53:02.826Z,99.38
2019-02-21T02:55:31.961Z,99.30
2019-02-21T02:58:01.115Z,99.42
2019-02-21T03:00:30.255Z,99.20
2019-02-21T03:02:59.443Z,98.95
2019-02-21T03:05:28.608Z,98.65
2019-02-21T03:07:57.698Z,98.40
2019-02-21T03:10:26.850Z,96.73
2019-02-21T03:12:55.979Z,96.78
2019-02-21T03:15:25.120Z,97.07
2019-02-21T03:17:54.218Z,96.94
2019-02-21T03:20:23.374Z,96.81
2019-02-21T03:22:52.495Z,96.60
2019-02-21T03:25:21.658Z,96.44
2019-02-21T03:27:50.775Z,96.49
2019-02-21T03:30:19.912Z,96.36
2019-02-21T03:32:49.024Z,95.37
2019-02-21T03:35:18.162Z,94.58
2019-02-21T03:37:47.266Z,93.90
2019-02-21T03:40:16.444Z,93.40
2019-02-21T03:42:45.552Z,93.29
2019-02-21T03:45:14.797Z,92.47
2019-02-21T03:47:43.947Z,91.76
2019-02-21T03:50:13.625Z,91.39
2019-02-21T03:52:42.766Z,91.08
2019-02-21T03:55:11.897Z,90.81
2019-02-21T03:57:41.049Z,90.15
2019-02-21T04:00:10.289Z,90.08
2019-02-21T04:02:39.513Z,90.20
2019-02-21T04:05:08.851Z,89.83
2019-02-21T04:07:38.010Z,89.69
2019-02-21T04:10:07.424Z,89.65
2019-02-21T04:12:36.568Z,89.20
2019-02-21T04:15:06.122Z,89.97
2019-02-21T04:17:35.318Z,88.86
2019-02-21T04:20:04.609Z,89.24
2019-02-21T04:22:33.737Z,89.04
2019-02-21T04:25:02.915Z,88.62
2019-02-21T04:27:32.099Z,88.66
2019-02-21T04:30:01.223Z,88.34
2019-02-21T04:32:30.364Z,88.30
2019-02-21T04:34:59.478Z,88.47
2019-02-21T04:37:28.627Z,88.29
2019-02-21T04:39:57.843Z,87.74
2019-02-21T04:42:26.999Z,87.53
2019-02-21T04:44:56.116Z,87.46
2019-02-21T04:47:25.620Z,87.07
2019-02-21T04:49:54.735Z,87.71
2019-02-21T04:52:23.967Z,88.18
2019-02-21T04:54:53.643Z,87.98
2019-02-21T04:57:22.818Z,87.49
2019-02-21T04:59:51.928Z,87.72
2019-02-21T05:02:29.260Z,87.74
2019-02-21T05:04:51.906Z,88.10
2019-02-21T05:07:21.048Z,88.35
2019-02-21T05:09:58.060Z,88.65
2019-02-21T05:12:21.413Z,89.13
2019-02-21T05:14:50.628Z,89.85
2019-02-21T05:17:19.776Z,90.55
2019-02-21T05:19:48.887Z,91.03
2019-02-21T05:22:18.270Z,91.21
2019-02-21T05:24:47.386Z,92.96
2019-02-21T05:27:20.271Z,93.95
2019-02-21T05:29:49.762Z,94.40
2019-02-21T05:32:41.198Z,94.75
2019-02-21T05:35:31.128Z,94.62
2019-02-21T05:38:09.167Z,95.21
2019-02-21T05:40:48.766Z,95.33
2019-02-21T05:43:37.362Z,95.32
2019-02-21T05:46:37.940Z,95.35
2019-02-21T05:49:22.185Z,95.76
2019-02-21T05:52:05.715Z,95.64
2019-02-21T05:54:53.487Z,95.73
2019-02-21T05:57:40.431Z,95.54
2019-02-21T06:00:36.886Z,95.62
2019-02-21T06:03:24.587Z,95.77
2019-02-21T06:06:18.499Z,96.07
2019-02-21T06:09:00.265Z,96.26
2019-02-21T06:11:47.075Z,96.73
2019-02-21T06:14:38.302Z,97.16
2019-02-21T06:17:24.358Z,97.05
2019-02-21T06:19:59.707Z,96.37
2019-02-21T06:22:41.060Z,95.64
2019-02-21T06:25:30.605Z,95.08
2019-02-21T06:28:05.254Z,94.70
2019-02-21T06:30:44.218Z,94.47
2019-02-21T06:33:13.378Z,94.35
2019-02-21T06:35:43.014Z,94.15
2019-02-21T06:38:12.143Z,94.22
2019-02-21T06:40:41.242Z,94.58
2019-02-21T06:43:10.667Z,95.07
2019-02-21T06:45:39.831Z,95.72
2019-02-21T06:48:09.401Z,95.63
2019-02-21T06:50:38.553Z,95.44
2019-02-21T06:53:08.141Z,95.13
2019-02-21T06:55:37.408Z,94.82
2019-02-21T06:58:06.548Z,94.10
2019-02-21T07:00:35.709Z,93.00
2019-02-21T07:03:15.109Z,92.21
2019-02-21T07:05:37.004Z,92.54
2019-02-21T07:08:08.741Z,92.82
2019-02-21T07:10:37.378Z,92.90
2019-02-21T07:13:06.507Z,92.20
2019-02-21T07:15:35.739Z,91.90
2019-02-21T07:18:04.914Z,91.28
2019-02-21T07:20:34.037Z,91.27
2019-02-21T07:23:03.190Z,90.21
2019-02-21T07:25:39.452Z,90.17
2019-02-21T07:28:11.650Z,89.92
2019-02-21T07:30:39.674Z,89.52
2019-02-21T07:33:08.850Z,89.16
2019-02-21T07:35:38.630Z,89.71
2019-02-21T07:38:07.759Z,89.38
2019-02-21T07:40:36.875Z,88.98
2019-02-21T07:43:06.021Z,89.27
2019-02-21T07:45:36.304Z,89.20
2019-02-21T07:48:05.745Z,88.98
2019-02-21T07:50:35.005Z,89.73
2019-02-21T07:53:04.448Z,89.44
2019-02-21T07:55:33.580Z,89.44
2019-02-21T07:58:03.979Z,88.52
2019-02-21T08:00:33.344Z,87.78
2019-02-21T08:03:02.483Z,88.73
2019-02-21T08:05:31.992Z,88.92
2019-02-21T08:08:01.105Z,88.63
2019-02-21T08:10:33.507Z,88.45
2019-02-21T08:13:01.167Z,88.30
2019-02-21T08:15:30.490Z,88.23
2019-02-21T08:17:59.604Z,88.13
2019-02-21T08:20:33.990Z,88.52
2019-02-21T08:22:59.628Z,89.01
2019-02-21T08:25:28.877Z,89.22
2019-02-21T08:27:57.998Z,88.52
2019-02-21T08:30:29.169Z,88.34
2019-02-21T08:33:25.913Z,88.38
2019-02-21T08:35:57.732Z,88.11
2019-02-21T08:38:25.920Z,87.62
2019-02-21T08:40:57.067Z,86.87
2019-02-21T08:43:25.949Z,85.84
2019-02-21T08:45:57.448Z,84.89
2019-02-21T08:48:25.917Z,85.45
2019-02-21T08:50:55.101Z,84.98
2019-02-21T08:53:24.215Z,85.25
2019-02-21T08:55:55.889Z,85.35
2019-02-21T08:58:24.131Z,85.26
2019-02-21T09:00:54.470Z,84.74
2019-02-21T09:03:23.732Z,85.25
2019-02-21T09:05:52.873Z,84.83
2019-02-21T09:08:32.706Z,85.10
2019-02-21T09:10:52.846Z,84.74
2019-02-21T09:13:23.910Z,83.97
2019-02-21T09:15:52.814Z,84.72
2019-02-21T09:18:21.928Z,84.53
2019-02-21T09:20:50.996Z,83.73
2019-02-21T09:23:20.149Z,83.73
2019-02-21T09:25:49.688Z,83.80
2019-02-21T09:28:18.900Z,83.80
2019-02-21T09:30:47.981Z,83.44
2019-02-21T09:33:18.997Z,83.88
2019-02-21T09:35:47.953Z,83.33
2019-02-21T09:38:17.428Z,83.33
2019-02-21T09:40:46.554Z,83.80
2019-02-21T09:43:15.656Z,83.80
2019-02-21T09:45:44.782Z,83.33
2019-02-21T09:48:13.886Z,82.83
2019-02-21T09:50:43.053Z,83.25
2019-02-21T09:53:12.163Z,83.59
2019-02-21T09:55:41.288Z,83.33
2019-02-21T09:58:10.841Z,83.29
2019-02-21T10:00:39.980Z,83.27
2019-02-21T10:03:09.084Z,83.27
2019-02-21T10:05:38.221Z,83.56
2019-02-21T10:08:07.324Z,83.45
2019-02-21T10:10:36.567Z,83.43
2019-02-21T10:13:05.643Z,83.59
2019-02-21T10:15:34.813Z,83.55
2019-02-21T10:18:03.897Z,83.62
2019-02-21T10:20:33.052Z,83.75
2019-02-21T10:23:02.152Z,83.45
2019-02-21T10:25:31.401Z,84.11
2019-02-21T10:28:00.611Z,83.10
2019-02-21T10:30:29.741Z,82.74
2019-02-21T10:32:58.862Z,82.77
2019-02-21T10:35:27.991Z,83.13
2019-02-21T10:37:57.089Z,83.16
2019-02-21T10:40:26.198Z,83.06
2019-02-21T10:42:55.342Z,81.10
2019-02-21T10:45:24.899Z,81.23
2019-02-21T10:47:54.051Z,81.40
2019-02-21T10:50:23.311Z,80.69
2019-02-21T10:52:52.434Z,79.71
2019-02-21T10:55:21.539Z,79.71
2019-02-21T10:57:50.679Z,78.07
2019-02-21T11:00:22.337Z,78.07
2019-02-21T11:02:51.451Z,78.00
2019-02-21T11:05:20.549Z,78.39
2019-02-21T11:07:49.909Z,76.85
2019-02-21T11:10:22.151Z,76.30
2019-02-21T11:12:51.327Z,75.59
2019-02-21T11:15:21.170Z,75.07
2019-02-21T11:17:50.499Z,76.49
2019-02-21T11:20:19.602Z,74.85
2019-02-21T11:22:48.753Z,75.46
2019-02-21T11:25:17.884Z,76.18
2019-02-21T11:27:47.076Z,75.92
2019-02-21T11:30:17.692Z,76.50
2019-02-21T11:32:46.880Z,76.00
2019-02-21T11:35:15.973Z,75.97
2019-02-21T11:37:47.096Z,77.08
2019-02-21T11:40:16.906Z,76.94
2019-02-21T11:42:46.632Z,76.94
2019-02-21T11:45:16.556Z,77.30
2019-02-21T11:47:45.689Z,76.15
2019-02-21T11:50:16.178Z,77.12
2019-02-21T11:52:45.635Z,76.61
2019-02-21T11:55:17.745Z,76.87
2019-02-21T11:57:46.945Z,76.68
2019-02-21T12:00:39.149Z,76.13
2019-02-21T12:03:08.298Z,75.70
2019-02-21T12:05:37.402Z,75.70
2019-02-21T12:08:06.525Z,74.89
2019-02-21T12:10:35.655Z,75.49
2019-02-21T12:13:05.094Z,76.20
2019-02-21T12:15:34.395Z,75.78
2019-02-21T12:18:03.570Z,76.34
2019-02-21T12:20:32.664Z,75.13
2019-02-21T12:23:01.783Z,75.80
2019-02-21T12:25:31.289Z,76.75
2019-02-21T12:28:00.414Z,75.94
2019-02-21T12:30:29.611Z,76.76
2019-02-21T12:32:58.741Z,76.12
2019-02-21T12:35:29.805Z,76.96
2019-02-21T12:37:59.036Z,76.96
2019-02-21T12:40:28.145Z,75.98
2019-02-21T12:42:57.467Z,76.87
2019-02-21T12:45:26.573Z,76.56
2019-02-21T12:47:55.705Z,77.37
2019-02-21T12:50:24.803Z,76.93
2019-02-21T12:52:54.055Z,76.85
2019-02-21T12:55:29.353Z,77.01
2019-02-21T12:57:54.056Z,77.17
2019-02-21T13:00:23.452Z,76.77
2019-02-21T13:02:52.569Z,77.97
2019-02-21T13:05:22.071Z,77.21
2019-02-21T13:07:51.195Z,77.20
2019-02-21T13:10:22.969Z,76.57
2019-02-21T13:12:52.213Z,77.01
2019-02-21T13:15:24.923Z,76.33
2019-02-21T13:17:54.012Z,76.52
2019-02-21T13:20:23.237Z,76.04
2019-02-21T13:22:52.976Z,75.28
2019-02-21T13:25:22.073Z,74.72
2019-02-21T13:27:51.216Z,75.36
2019-02-21T13:30:20.323Z,74.71
2019-02-21T13:32:49.495Z,73.48
2019-02-21T13:35:18.613Z,74.57
2019-02-21T13:37:48.824Z,74.92
2019-02-21T13:40:20.937Z,74.13
2019-02-21T13:42:49.420Z,74.73
2019-02-21T13:45:18.865Z,75.09
2019-02-21T13:47:48.003Z,74.29
2019-02-21T13:50:17.638Z,74.75
2019-02-21T13:52:47.146Z,73.56
2019-02-21T13:55:16.583Z,74.18
2019-02-21T13:57:45.741Z,73.80
2019-02-21T14:00:17.150Z,73.91
2019-02-21T14:02:46.839Z,75.19
2019-02-21T14:05:16.005Z,73.77
2019-02-21T14:07:45.337Z,73.91
2019-02-21T14:10:15.184Z,74.78
2019-02-21T14:12:44.339Z,74.30
2019-02-21T14:15:16.010Z,74.23
2019-02-21T14:17:46.681Z,73.85
2019-02-21T14:20:16.544Z,73.58
2019-02-21T14:22:45.713Z,74.68
2019-02-21T14:25:15.080Z,73.62
2019-02-21T14:27:44.257Z,73.47
2019-02-21T14:30:15.616Z,72.97
2019-02-21T14:32:45.961Z,73.10
2019-02-21T14:35:16.025Z,73.02
2019-02-21T14:37:45.147Z,72.66
2019-02-21T14:40:14.574Z,72.44
2019-02-21T14:42:45.114Z,72.70
2019-02-21T14:45:16.186Z,72.26
2019-02-21T14:47:45.333Z,72.60
2019-02-21T14:50:16.110Z,73.81
2019-02-21T14:52:45.556Z,74.91
2019-02-21T14:55:15.283Z,73.73
2019-02-21T14:57:44.409Z,75.17
2019-02-21T15:00:19.816Z,75.20
2019-02-21T15:02:48.953Z,74.16
2019-02-21T15:05:19.143Z,72.55
2019-02-21T15:07:48.821Z,73.10
2019-02-21T15:10:18.508Z,71.43
2019-02-21T15:12:48.373Z,72.54
2019-02-21T15:15:18.258Z,72.37
2019-02-21T15:17:47.773Z,73.41
2019-02-21T15:20:17.378Z,72.20
2019-02-21T15:22:46.905Z,72.70
2019-02-21T15:25:16.045Z,73.95
2019-02-21T15:27:45.138Z,75.70
2019-02-21T15:30:16.343Z,76.18
2019-02-21T15:32:45.436Z,78.49
2019-02-21T15:35:14.896Z,79.04
2019-02-21T15:37:45.207Z,79.25
2019-02-21T15:40:14.678Z,80.54
2019-02-21T15:42:43.870Z,81.27
2019-02-21T15:45:23.016Z,81.97
2019-02-21T15:47:45.890Z,83.01
2019-02-21T15:50:15.181Z,83.49
2019-02-21T15:52:44.647Z,83.47
2019-02-21T15:55:14.733Z,83.27
2019-02-21T15:57:43.869Z,82.96
2019-02-21T16:00:15.182Z,82.83
2019-02-21T16:02:44.271Z,81.84
2019-02-21T16:05:13.797Z,82.66
2019-02-21T16:07:42.914Z,82.47
2019-02-21T16:10:14.293Z,81.43
2019-02-21T16:12:43.886Z,81.68
2019-02-21T16:15:16.165Z,82.17
2019-02-21T16:17:44.489Z,81.70
2019-02-21T16:20:14.478Z,82.43
2019-02-21T16:22:44.157Z,82.31
2019-02-21T16:25:15.476Z,81.85
2019-02-21T16:27:44.574Z,82.97
2019-02-21T16:30:14.267Z,82.17
2019-02-21T16:32:43.522Z,81.52
2019-02-21T16:35:12.779Z,82.24
2019-02-21T16:37:42.120Z,82.61
2019-02-21T16:40:12.406Z,82.41
2019-02-21T16:42:41.633Z,83.06
2019-02-21T16:45:12.029Z,82.25
2019-02-21T16:47:41.129Z,81.25
2019-02-21T16:50:11.160Z,81.52
2019-02-21T16:52:40.300Z,81.87
2019-02-21T16:55:11.480Z,81.91
2019-02-21T16:57:40.617Z,81.80
2019-02-21T17:00:11.205Z,82.96
2019-02-21T17:02:40.312Z,81.46
2019-02-21T17:05:09.859Z,82.45
2019-02-21T17:07:38.968Z,82.51
2019-02-21T17:10:08.611Z,81.75
2019-02-21T17:12:37.722Z,82.86
2019-02-21T17:15:08.131Z,83.46
2019-02-21T17:17:37.532Z,82.26
2019-02-21T17:20:08.244Z,82.22
2019-02-21T17:22:37.390Z,83.30
2019-02-21T17:25:06.951Z,83.68
2019-02-21T17:27:36.101Z,83.37
2019-02-21T17:30:05.750Z,83.54
2019-02-21T17:32:34.862Z,84.02
2019-02-21T17:35:04.452Z,83.96
2019-02-21T17:37:33.562Z,83.61
2019-02-21T17:40:02.775Z,82.74
2019-02-21T17:42:31.926Z,82.09
2019-02-21T17:45:03.301Z,82.26
2019-02-21T17:47:36.142Z,81.73
2019-02-21T17:50:06.057Z,81.72
2019-02-21T17:52:36.107Z,82.03
2019-02-21T17:55:05.655Z,81.75
2019-02-21T17:57:36.931Z,82.04
2019-02-21T18:00:07.922Z,82.70
2019-02-21T18:02:37.490Z,82.88
2019-02-21T18:05:06.926Z,81.98
2019-02-21T18:07:36.798Z,81.52
2019-02-21T18:10:07.739Z,81.58
2019-02-21T18:12:36.978Z,81.69
2019-02-21T18:15:06.384Z,81.43
2019-02-21T18:17:35.516Z,80.92
2019-02-21T18:20:05.066Z,81.94
2019-02-21T18:22:34.167Z,82.26
2019-02-21T18:25:03.824Z,82.27
2019-02-21T18:27:34.683Z,81.98
2019-02-21T18:30:04.020Z,81.42
2019-02-21T18:32:33.119Z,82.13
2019-02-21T18:35:02.307Z,81.60
2019-02-21T18:37:31.401Z,81.84
2019-02-21T18:40:00.548Z,81.63
2019-02-21T18:42:29.665Z,81.92
2019-02-21T18:44:58.756Z,83.29
2019-02-21T18:47:28.199Z,83.40
2019-02-21T18:49:57.431Z,83.06
2019-02-21T18:52:26.585Z,84.19
2019-02-21T18:54:55.728Z,83.67
2019-02-21T18:57:25.128Z,83.05
2019-02-21T18:59:54.439Z,83.44
2019-02-21T19:02:23.638Z,81.60
2019-02-21T19:04:52.907Z,81.60
2019-02-21T19:07:22.102Z,81.78
2019-02-21T19:09:51.275Z,80.88
2019-02-21T19:12:20.445Z,80.54
2019-02-21T19:14:50.155Z,81.75
2019-02-21T19:17:19.242Z,81.75
2019-02-21T19:19:48.367Z,81.57
2019-02-21T19:22:18.102Z,81.32
2019-02-21T19:24:47.343Z,81.32
2019-02-21T19:27:17.255Z,81.77
2019-02-21T19:29:46.731Z,81.59
2019-02-21T19:32:15.956Z,82.46
2019-02-21T19:34:45.131Z,82.50
2019-02-21T19:37:14.451Z,82.88
2019-02-21T19:39:44.277Z,83.45
2019-02-21T19:42:13.490Z,83.62
2019-02-21T19:44:42.678Z,83.41
2019-02-21T19:47:11.884Z,84.17
2019-02-21T19:49:41.468Z,83.82
2019-02-21T19:52:10.660Z,84.20
2019-02-21T19:54:39.855Z,84.55
2019-02-21T19:57:09.010Z,84.76
2019-02-21T19:59:38.373Z,85.60
2019-02-21T20:02:08.169Z,85.90
2019-02-21T20:04:37.318Z,86.03
2019-02-21T20:07:06.562Z,85.67
2019-02-21T20:09:35.728Z,86.97
2019-02-21T20:12:05.033Z,86.97
2019-02-21T20:14:34.187Z,86.67
2019-02-21T20:17:03.334Z,87.36
2019-02-21T20:19:32.659Z,87.60
2019-02-21T20:22:01.754Z,87.60
2019-02-21T20:24:30.898Z,87.80
2019-02-21T20:27:00.508Z,89.60
2019-02-21T20:29:29.696Z,89.60
2019-02-21T20:31:59.074Z,89.45
2019-02-21T20:34:28.295Z,90.04
2019-02-21T20:36:57.556Z,90.68
2019-02-21T20:39:26.931Z,91.34
2019-02-21T20:41:56.318Z,91.34
2019-02-21T20:44:25.438Z,91.82
2019-02-21T20:46:54.571Z,92.24
2019-02-21T20:49:23.880Z,92.24
2019-02-21T20:51:53.063Z,92.58
2019-02-21T20:54:22.336Z,92.36
2019-02-21T20:56:51.612Z,92.63
2019-02-21T20:59:20.722Z,92.63
2019-02-21T21:01:50.236Z,92.50
2019-02-21T21:04:19.356Z,93.25
2019-02-21T21:06:48.522Z,93.21
2019-02-21T21:09:17.778Z,93.21
2019-02-21T21:11:46.921Z,93.57
2019-02-21T21:14:16.007Z,93.88
2019-02-21T21:16:46.252Z,94.38
2019-02-21T21:19:15.423Z,94.38
2019-02-21T21:21:44.739Z,94.55
2019-02-21T21:24:14.334Z,94.55
2019-02-21T21:26:43.873Z,94.97
2019-02-21T21:29:12.979Z,95.03
2019-02-21T21:31:42.105Z,95.08
2019-02-21T21:34:11.212Z,95.58
2019-02-21T21:36:40.348Z,95.50
2019-02-21T21:39:09.847Z,95.50
2019-02-21T21:41:39.063Z,95.57
2019-02-21T21:44:08.254Z,96.79
2019-02-21T21:46:37.375Z,96.79
2019-02-21T21:49:06.532Z,96.93
2019-02-21T21:51:35.631Z,97.25
2019-02-21T21:54:04.801Z,98.39
2019-02-21T21:56:33.924Z,98.52
2019-02-21T21:59:03.084Z,98.87
2019-02-21T22:01:32.242Z,98.87
2019-02-21T22:04:01.347Z,99.10
2019-02-21T22:06:30.511Z,99.34
2019-02-21T22:09:04.644Z,99.89
2019-02-21T22:11:31.244Z,100.00
2019-02-21T22:14:00.681Z,100.00
2019-02-21T22:16:29.832Z,100.00
2019-02-21T22:18:58.940Z,100.00
2019-02-21T22:21:28.295Z,100.00
2019-02-21T22:23:57.452Z,100.00
2019-02-21T22:26:26.601Z,100.00
2019-02-21T22:28:55.724Z,100.00
2019-02-21T22:31:24.883Z,100.00
2019-02-21T22:33:54.180Z,100.00
2019-02-21T22:36:23.336Z,100.00
2019-02-21T22:38:52.447Z,100.00
2019-02-21T22:41:21.599Z,100.00
2019-02-21T22:43:50.718Z,100.00
2019-02-21T22:46:19.854Z,100.00
2019-02-21T22:48:49.145Z,100.00
2019-02-21T22:51:18.351Z,100.00
2019-02-21T22:53:47.446Z,100.00
2019-02-21T22:56:16.606Z,100.00
2019-02-21T22:58:45.802Z,100.00
2019-02-21T23:01:42.386Z,100.00
2019-02-21T23:04:48.605Z,100.00
2019-02-21T23:08:04.810Z,100.00
2019-02-21T23:10:33.943Z,100.00
2019-02-21T23:13:03.227Z,100.00
2019-02-21T23:15:32.358Z,100.00
2019-02-21T23:18:01.646Z,100.00
2019-02-21T23:20:30.756Z,100.00
2019-02-21T23:22:59.897Z,100.00
2019-02-21T23:25:29.024Z,100.00
2019-02-21T23:27:58.367Z,100.00
2019-02-21T23:30:27.475Z,100.00
2019-02-21T23:32:56.661Z,100.00
2019-02-21T23:35:25.789Z,100.00
2019-02-21T23:37:55.268Z,100.00
2019-02-21T23:40:24.396Z,100.00
2019-02-21T23:43:20.581Z,100.00
2019-02-21T23:45:49.704Z,100.00
2019-02-21T23:48:18.913Z,100.00
2019-02-21T23:50:48.023Z,100.00
2019-02-21T23:53:17.173Z,100.00
2019-02-21T23:55:46.285Z,100.00
2019-02-21T23:58:15.501Z,100.00
